Time;durP1;ratioP1;P1;durP2;ratioP2;P2;SDS_P1;SDS_P2;PMS_P1;PMS_P2;Temp;Humidity;BMP_temperature;BMP_pressure;BME280_temperature;BME280_humidity;BME280_pressure;Samples;Min_cycle;Max_cycle;Signal;HPM_P1;HPM_P2
2023/08/11 00:00:13;;;;;;;18.77;17.23;;;18.90;99.90;;;;;;5036541;28;20812;-71
2023/08/11 00:02:42;;;;;;;14.07;13.20;;;18.90;99.90;;;;;;5036584;28;20427;-72
2023/08/11 00:05:11;;;;;;;12.77;11.70;;;18.90;99.90;;;;;;5036604;28;20955;-71
2023/08/11 00:07:39;;;;;;;13.57;12.37;;;18.90;99.90;;;;;;5036473;28;20455;-72
2023/08/11 00:10:08;;;;;;;19.07;17.73;;;18.90;99.90;;;;;;5035010;28;20803;-72
2023/08/11 00:12:36;;;;;;;13.57;12.43;;;18.90;99.90;;;;;;5034899;28;20502;-71
2023/08/11 00:15:07;;;;;;;23.43;21.90;;;18.90;99.90;;;;;;5036145;28;20442;-72
2023/08/11 00:17:36;;;;;;;24.20;22.53;;;18.80;99.90;;;;;;5035077;28;20863;-72
2023/08/11 00:20:06;;;;;;;22.37;20.57;;;18.80;99.90;;;;;;5035993;28;20467;-72
2023/08/11 00:22:34;;;;;;;22.63;20.97;;;18.80;99.90;;;;;;5034877;28;20797;-72
2023/08/11 00:25:02;;;;;;;22.23;20.70;;;18.80;99.90;;;;;;5035790;28;20526;-71
2023/08/11 00:27:30;;;;;;;21.63;20.13;;;18.80;99.90;;;;;;5034699;28;20446;-72
2023/08/11 00:29:59;;;;;;;22.90;21.10;;;18.80;99.90;;;;;;5035802;28;20445;-72
2023/08/11 00:32:28;;;;;;;14.47;13.33;;;18.80;99.90;;;;;;5033805;28;20497;-71
2023/08/11 00:34:57;;;;;;;14.17;13.13;;;18.80;99.90;;;;;;5034331;28;20809;-71
2023/08/11 00:37:25;;;;;;;19.33;17.97;;;18.80;99.90;;;;;;5035650;28;20435;-72
2023/08/11 00:39:54;;;;;;;22.43;20.53;;;18.70;99.90;;;;;;5035633;28;20445;-71
2023/08/11 00:42:22;;;;;;;25.90;24.17;;;18.70;99.90;;;;;;5035692;28;20435;-72
2023/08/11 00:44:50;;;;;;;20.20;19.07;;;18.70;99.90;;;;;;5034553;28;20824;-71
2023/08/11 00:47:19;;;;;;;18.40;17.20;;;18.70;99.90;;;;;;5034198;28;20453;-71
2023/08/11 00:49:49;;;;;;;22.73;21.00;;;18.70;99.90;;;;;;5034189;28;20435;-71
2023/08/11 00:52:18;;;;;;;19.33;18.20;;;18.70;99.90;;;;;;5035581;28;20928;-71
2023/08/11 00:54:46;;;;;;;21.50;20.17;;;18.70;99.90;;;;;;5035381;28;20477;-71
2023/08/11 00:57:15;;;;;;;11.40;10.47;;;18.70;99.90;;;;;;5035237;28;20446;-71
2023/08/11 00:59:44;;;;;;;14.67;13.33;;;18.70;99.90;;;;;;5035759;28;21034;-72
2023/08/11 01:02:12;;;;;;;20.33;18.80;;;18.60;99.90;;;;;;5034130;28;20454;-71
2023/08/11 01:04:41;;;;;;;17.83;16.43;;;18.60;99.90;;;;;;5035129;28;20537;-71
2023/08/11 01:07:18;;;;;;;26.23;24.23;;;18.60;99.90;;;;;;5033932;28;20447;-71
2023/08/11 01:09:59;;;;;;;30.77;28.87;;;18.70;99.90;;;;;;5035200;28;20831;-71
2023/08/11 01:12:35;;;;;;;52.47;48.37;;;18.60;99.90;;;;;;5034119;28;20433;-71
2023/08/11 01:15:10;;;;;;;792.47;336.23;;;18.60;99.90;;;;;;5033670;28;20851;-71
2023/08/11 01:17:40;;;;;;;1999.90;999.90;;;18.60;99.90;;;;;;5033677;28;20446;-71
2023/08/11 01:20:11;;;;;;;1999.90;999.90;;;18.60;99.90;;;;;;5033425;28;20479;-71
2023/08/11 01:22:44;;;;;;;1999.90;999.90;;;18.60;99.90;;;;;;5033444;28;20440;-71
2023/08/11 01:25:15;;;;;;;1999.90;999.90;;;18.50;99.90;;;;;;5035404;28;20420;-71
2023/08/11 01:27:44;;;;;;;1999.90;999.90;;;18.50;99.90;;;;;;5035059;28;20423;-71
2023/08/11 01:30:14;;;;;;;1999.90;999.90;;;18.50;99.90;;;;;;5034616;28;20435;-71
2023/08/11 01:32:43;;;;;;;1999.90;999.90;;;18.50;99.90;;;;;;5033170;28;20987;-71
2023/08/11 01:35:11;;;;;;;1999.90;999.90;;;18.50;99.90;;;;;;5033224;28;20960;-71
2023/08/11 01:37:47;;;;;;;1999.90;999.90;;;18.50;99.90;;;;;;5034479;28;20422;-71
2023/08/11 01:40:16;;;;;;;1716.63;999.90;;;18.50;99.90;;;;;;5032994;28;20995;-71
2023/08/11 01:42:45;;;;;;;1757.63;999.90;;;18.50;99.90;;;;;;5032623;28;21026;-71
2023/08/11 01:45:22;;;;;;;1770.60;999.90;;;18.50;99.90;;;;;;5032771;28;20445;-71
2023/08/11 01:47:51;;;;;;;1819.63;999.90;;;18.50;99.90;;;;;;5033087;28;20531;-71
2023/08/11 01:50:20;;;;;;;1872.17;999.90;;;18.50;99.90;;;;;;5034153;28;20449;-71
2023/08/11 01:52:49;;;;;;;1799.20;999.90;;;18.50;99.90;;;;;;5034595;28;20520;-71
2023/08/11 01:55:19;;;;;;;1718.63;999.90;;;18.50;99.90;;;;;;5032935;28;20474;-71
2023/08/11 01:57:48;;;;;;;1905.77;999.90;;;18.50;99.90;;;;;;5034463;28;20435;-71
2023/08/11 02:00:27;;;;;;;1760.37;999.90;;;18.50;99.90;;;;;;5037659;28;20561;-71
2023/08/11 02:02:57;;;;;;;1484.20;999.90;;;18.50;99.90;;;;;;5036969;28;20471;-71
2023/08/11 02:05:27;;;;;;;1523.83;999.90;;;18.50;99.90;;;;;;5037603;28;20493;-71
2023/08/11 02:07:56;;;;;;;1227.90;999.90;;;18.40;99.90;;;;;;5037481;28;20447;-71
2023/08/11 02:10:25;;;;;;;1271.43;999.90;;;18.50;99.90;;;;;;5036009;28;20480;-71
2023/08/11 02:12:53;;;;;;;1275.30;999.90;;;18.40;99.90;;;;;;5036734;28;20469;-71
2023/08/11 02:15:22;;;;;;;1277.23;999.90;;;18.50;99.90;;;;;;5035334;28;20987;-71
2023/08/11 02:17:50;;;;;;;1272.43;999.90;;;18.40;99.90;;;;;;5036713;28;20431;-71
2023/08/11 02:20:21;;;;;;;1293.27;999.90;;;18.40;99.90;;;;;;5035159;28;20528;-71
2023/08/11 02:22:51;;;;;;;1999.90;999.90;;;18.40;99.90;;;;;;5035417;28;20477;-71
2023/08/11 02:25:21;;;;;;;1923.00;999.90;;;18.40;99.90;;;;;;5035116;28;20447;-71
2023/08/11 02:27:52;;;;;;;1528.67;999.90;;;18.50;99.90;;;;;;5038118;28;20416;-71
2023/08/11 02:30:21;;;;;;;560.63;522.73;;;18.40;99.90;;;;;;5039258;28;20925;-71
2023/08/11 02:32:50;;;;;;;7.17;6.57;;;18.40;99.90;;;;;;5037428;28;20463;-71
2023/08/11 02:35:19;;;;;;;5.77;5.27;;;18.40;99.90;;;;;;5038530;28;20458;-71
2023/08/11 02:37:49;;;;;;;6.13;5.00;;;18.40;99.90;;;;;;5036772;28;20972;-71
2023/08/11 02:40:19;;;;;;;7.63;4.87;;;18.40;99.90;;;;;;5036045;28;20984;-71
2023/08/11 02:42:56;;;;;;;6.17;4.87;;;18.40;99.90;;;;;;5038021;28;20461;-71
2023/08/11 02:45:26;;;;;;;8.33;5.30;;;18.40;99.90;;;;;;5036216;28;20442;-71
2023/08/11 02:47:56;;;;;;;7.00;6.30;;;18.40;99.90;;;;;;5036917;28;20438;-71
2023/08/11 02:50:24;;;;;;;6.97;5.70;;;18.40;99.90;;;;;;5037282;28;20485;-71
2023/08/11 02:52:52;;;;;;;9.97;5.70;;;18.40;99.90;;;;;;5035415;28;20448;-71
2023/08/11 02:55:22;;;;;;;7.20;6.23;;;18.40;99.90;;;;;;5039824;28;20478;-71
2023/08/11 02:57:50;;;;;;;7.33;5.80;;;18.30;99.90;;;;;;5044225;28;20443;-71
2023/08/11 03:00:19;;;;;;;7.50;5.50;;;18.40;99.90;;;;;;5043221;28;20542;-71
2023/08/11 03:02:47;;;;;;;7.33;5.20;;;18.30;99.90;;;;;;5045135;28;20478;-71
2023/08/11 03:05:17;;;;;;;7.53;6.83;;;18.30;99.90;;;;;;5042796;28;20462;-71
2023/08/11 03:07:50;;;;;;;7.30;6.60;;;18.40;99.90;;;;;;5041843;28;20450;-71
2023/08/11 03:10:18;;;;;;;7.80;6.63;;;18.40;99.90;;;;;;5041596;28;20527;-71
2023/08/11 03:12:47;;;;;;;7.50;6.80;;;18.40;99.90;;;;;;5040314;28;20566;-71
2023/08/11 03:15:16;;;;;;;8.47;5.80;;;18.30;99.90;;;;;;5040836;28;20443;-71
2023/08/11 03:17:45;;;;;;;7.07;6.37;;;18.40;99.90;;;;;;5038830;28;20447;-71
2023/08/11 03:20:15;;;;;;;7.80;7.03;;;18.30;99.90;;;;;;5039657;28;20493;-71
2023/08/11 03:22:46;;;;;;;9.53;6.20;;;18.30;99.90;;;;;;5040139;28;20467;-71
2023/08/11 03:25:18;;;;;;;8.57;6.50;;;18.30;99.90;;;;;;5042601;28;20467;-71
2023/08/11 03:27:46;;;;;;;8.20;7.40;;;18.30;99.90;;;;;;5045429;28;20431;-71
2023/08/11 03:30:22;;;;;;;6.80;6.20;;;18.30;99.90;;;;;;5043949;28;20492;-71
2023/08/11 03:32:55;;;;;;;6.90;5.97;;;18.30;99.90;;;;;;5043866;28;20521;-70
2023/08/11 03:35:36;;;;;;;8.60;5.80;;;18.30;99.90;;;;;;5043004;28;20501;-71
2023/08/11 03:38:05;;;;;;;6.70;6.00;;;18.30;99.90;;;;;;5043167;28;20442;-71
2023/08/11 03:40:34;;;;;;;6.10;5.47;;;18.30;99.90;;;;;;5043262;28;20470;-71
2023/08/11 03:43:03;;;;;;;7.20;6.50;;;18.30;99.90;;;;;;5043570;28;20467;-71
2023/08/11 03:45:33;;;;;;;8.67;6.80;;;18.30;99.90;;;;;;5043218;28;20442;-71
2023/08/11 03:48:06;;;;;;;7.80;7.00;;;18.30;99.90;;;;;;5043639;28;20443;-71
2023/08/11 03:50:35;;;;;;;8.10;7.30;;;18.30;99.90;;;;;;5043581;28;20459;-71
2023/08/11 03:53:04;;;;;;;9.10;6.07;;;18.30;99.90;;;;;;5042821;28;20471;-71
2023/08/11 03:55:32;;;;;;;9.53;7.00;;;18.30;99.90;;;;;;5038643;28;20482;-71
2023/08/11 03:58:01;;;;;;;10.13;6.97;;;18.30;99.90;;;;;;5038351;28;20997;-71
2023/08/11 04:00:31;;;;;;;7.83;6.87;;;18.30;99.90;;;;;;5038650;28;20474;-71
2023/08/11 04:03:14;;;;;;;7.97;7.27;;;18.30;99.90;;;;;;5038176;28;21004;-71
2023/08/11 04:05:43;;;;;;;9.20;7.33;;;18.30;99.90;;;;;;5039716;28;20434;-71
2023/08/11 04:08:12;;;;;;;8.93;7.50;;;18.30;99.90;;;;;;5035737;28;20443;-72
2023/08/11 04:10:40;;;;;;;6.57;5.97;;;18.30;99.90;;;;;;5035268;28;20451;-71
2023/08/11 04:13:08;;;;;;;11.23;7.70;;;18.30;99.90;;;;;;5034876;28;20947;-71
2023/08/11 04:15:37;;;;;;;8.03;7.27;;;18.30;99.90;;;;;;5036395;28;20497;-71
2023/08/11 04:18:05;;;;;;;8.10;7.30;;;18.30;99.90;;;;;;5037788;28;20802;-71
2023/08/11 04:20:36;;;;;;;9.27;8.37;;;18.30;99.90;;;;;;5036618;28;20470;-71
2023/08/11 04:23:05;;;;;;;8.50;6.93;;;18.30;99.90;;;;;;5038077;28;20482;-71
2023/08/11 04:25:35;;;;;;;9.17;8.27;;;18.30;99.90;;;;;;5036794;28;20451;-71
2023/08/11 04:28:04;;;;;;;9.20;8.40;;;18.30;99.90;;;;;;5036283;28;20454;-71
2023/08/11 04:30:33;;;;;;;8.87;8.07;;;18.30;99.90;;;;;;5037025;28;20443;-71
2023/08/11 04:33:01;;;;;;;8.63;7.80;;;18.30;99.90;;;;;;5035498;28;20471;-71
2023/08/11 04:35:34;;;;;;;9.07;8.10;;;18.30;99.90;;;;;;5034601;28;20435;-71
2023/08/11 04:38:04;;;;;;;8.50;7.80;;;18.30;99.90;;;;;;5034926;28;20438;-71
2023/08/11 04:40:34;;;;;;;9.77;8.00;;;18.30;99.90;;;;;;5034511;28;20891;-71
2023/08/11 04:43:02;;;;;;;10.10;8.90;;;18.30;99.90;;;;;;5034586;28;21005;-71
2023/08/11 04:45:36;;;;;;;10.07;8.77;;;18.30;99.90;;;;;;5034599;28;20962;-71
2023/08/11 04:48:05;;;;;;;10.20;9.20;;;18.30;99.90;;;;;;5034297;28;20451;-71
2023/08/11 04:50:36;;;;;;;8.73;8.00;;;18.30;99.90;;;;;;5034167;28;20454;-71
2023/08/11 04:53:05;;;;;;;11.93;8.60;;;18.30;99.90;;;;;;5034215;28;20469;-71
2023/08/11 04:55:34;;;;;;;10.30;9.30;;;18.30;99.90;;;;;;5033992;28;20461;-71
2023/08/11 04:58:04;;;;;;;10.60;9.60;;;18.30;99.90;;;;;;5033996;28;20447;-71
2023/08/11 05:00:33;;;;;;;9.10;8.27;;;18.30;99.90;;;;;;5033898;28;20447;-71
2023/08/11 05:03:01;;;;;;;9.20;8.30;;;18.30;99.90;;;;;;5033870;28;20878;-71
2023/08/11 05:05:30;;;;;;;9.03;8.23;;;18.30;99.90;;;;;;5035375;28;20422;-71
2023/08/11 05:08:01;;;;;;;8.67;7.83;;;18.30;99.90;;;;;;5035101;28;20439;-71
2023/08/11 05:10:29;;;;;;;8.57;7.73;;;18.30;99.90;;;;;;5035059;28;20420;-71
2023/08/11 05:12:58;;;;;;;9.57;8.67;;;18.30;99.90;;;;;;5035212;28;20467;-71
2023/08/11 05:15:27;;;;;;;8.70;7.90;;;18.30;99.90;;;;;;5033715;28;21023;-71
2023/08/11 05:17:55;;;;;;;9.47;8.63;;;18.30;99.90;;;;;;5034727;28;20431;-71
2023/08/11 05:20:23;;;;;;;9.03;8.17;;;18.40;99.90;;;;;;5035318;28;20473;-71
2023/08/11 05:22:52;;;;;;;9.33;7.50;;;18.40;99.90;;;;;;5035331;28;20461;-71
2023/08/11 05:25:22;;;;;;;8.60;7.80;;;18.40;99.90;;;;;;5033798;28;20790;-71
2023/08/11 05:27:50;;;;;;;9.67;8.77;;;18.40;99.90;;;;;;5034623;28;20539;-71
2023/08/11 05:30:18;;;;;;;10.10;9.17;;;18.40;99.90;;;;;;5035062;28;20418;-71
2023/08/11 05:32:46;;;;;;;12.00;9.47;;;18.40;99.90;;;;;;5034719;28;20455;-71
2023/08/11 05:35:14;;;;;;;10.43;9.20;;;18.50;99.90;;;;;;5035169;28;20788;-71
2023/08/11 05:37:43;;;;;;;9.50;8.63;;;18.50;99.90;;;;;;5034740;28;20443;-71
2023/08/11 05:40:12;;;;;;;10.27;9.07;;;18.50;99.90;;;;;;5034933;28;20401;-71
2023/08/11 05:42:42;;;;;;;11.90;8.70;;;18.50;99.90;;;;;;5034559;28;20834;-71
2023/08/11 05:45:11;;;;;;;10.10;9.10;;;18.50;99.90;;;;;;5034452;28;20959;-71
2023/08/11 05:47:41;;;;;;;10.57;9.50;;;18.50;99.90;;;;;;5034459;28;20812;-71
2023/08/11 05:50:10;;;;;;;9.73;8.73;;;18.60;99.90;;;;;;5032988;28;20526;-71
2023/08/11 05:52:38;;;;;;;9.67;8.50;;;18.60;99.90;;;;;;5034461;28;20880;-71
2023/08/11 05:55:07;;;;;;;9.93;8.50;;;18.60;99.90;;;;;;5034464;28;20492;-71
2023/08/11 05:57:35;;;;;;;9.20;8.30;;;18.60;99.90;;;;;;5034382;28;20435;-71
2023/08/11 06:00:06;;;;;;;10.00;9.20;;;18.60;99.90;;;;;;5032957;28;20454;-71
2023/08/11 06:02:40;;;;;;;10.33;9.47;;;18.60;99.90;;;;;;5034386;28;20521;-71
2023/08/11 06:05:09;;;;;;;10.50;9.50;;;18.70;99.90;;;;;;5034400;28;20434;-71
2023/08/11 06:07:37;;;;;;;11.33;9.13;;;18.70;99.90;;;;;;5034132;28;20501;-70
2023/08/11 06:10:08;;;;;;;10.07;9.10;;;18.70;99.90;;;;;;5034591;28;20419;-71
2023/08/11 06:12:37;;;;;;;10.47;9.00;;;18.80;99.90;;;;;;5033828;28;20552;-71
2023/08/11 06:15:08;;;;;;;12.23;8.87;;;18.80;99.90;;;;;;5032700;28;20417;-71
2023/08/11 06:17:37;;;;;;;11.23;10.13;;;18.80;99.90;;;;;;5034111;28;20489;-71
2023/08/11 06:20:08;;;;;;;12.10;9.93;;;18.80;99.90;;;;;;5032680;28;20488;-71
2023/08/11 06:22:37;;;;;;;10.20;9.10;;;18.90;99.90;;;;;;5034173;28;20554;-71
2023/08/11 06:25:06;;;;;;;11.83;10.73;;;19.00;99.90;;;;;;5033768;28;20446;-71
2023/08/11 06:27:34;;;;;;;9.90;8.93;;;19.20;99.90;;;;;;5033736;28;20529;-71
2023/08/11 06:30:04;;;;;;;8.90;8.00;;;19.40;99.90;;;;;;5033596;28;20438;-71
2023/08/11 06:32:33;;;;;;;8.90;8.00;;;19.60;99.90;;;;;;5033609;28;20451;-71
2023/08/11 06:35:03;;;;;;;8.90;8.10;;;19.80;99.90;;;;;;5033587;28;20816;-71
2023/08/11 06:37:31;;;;;;;8.07;7.27;;;20.00;99.90;;;;;;5033450;28;20474;-71
2023/08/11 06:39:59;;;;;;;13.73;8.63;;;20.10;99.90;;;;;;5033495;28;20445;-71
2023/08/11 06:42:27;;;;;;;8.10;7.40;;;20.30;99.90;;;;;;5033485;28;20474;-71
2023/08/11 06:45:04;;;;;;;7.87;7.17;;;20.50;99.90;;;;;;5032554;28;20442;-71
2023/08/11 06:47:35;;;;;;;7.60;6.80;;;20.60;99.90;;;;;;5033391;28;20439;-71
2023/08/11 06:50:04;;;;;;;7.87;7.17;;;20.80;99.90;;;;;;5032414;28;20435;-71
2023/08/11 06:52:32;;;;;;;7.67;6.97;;;20.90;99.90;;;;;;5033919;28;20462;-71
2023/08/11 06:55:00;;;;;;;8.57;7.30;;;21.10;99.90;;;;;;5033755;28;20542;-71
2023/08/11 06:57:28;;;;;;;7.40;6.70;;;21.20;99.90;;;;;;5032137;28;20562;-71
2023/08/11 06:59:56;;;;;;;6.43;5.93;;;21.40;99.90;;;;;;5033879;28;20453;-71
2023/08/11 07:02:25;;;;;;;6.37;5.77;;;21.50;99.90;;;;;;5032406;28;20463;-70
2023/08/11 07:04:54;;;;;;;7.33;6.63;;;21.60;99.90;;;;;;5033892;28;20434;-70
2023/08/11 07:07:23;;;;;;;5.47;4.97;;;21.70;99.90;;;;;;5034128;28;20446;-71
2023/08/11 07:09:51;;;;;;;6.80;5.10;;;21.80;99.90;;;;;;5033813;28;20443;-70
2023/08/11 07:12:19;;;;;;;6.20;5.60;;;21.90;99.90;;;;;;5032172;28;20446;-71
2023/08/11 07:14:47;;;;;;;5.23;4.53;;;22.00;99.90;;;;;;5033952;28;20883;-71
2023/08/11 07:17:17;;;;;;;9.23;4.87;;;22.10;99.90;;;;;;5033677;28;20879;-71
2023/08/11 07:19:45;;;;;;;7.23;6.33;;;22.20;99.90;;;;;;5033978;28;20450;-71
2023/08/11 07:22:14;;;;;;;4.47;4.07;;;22.30;99.90;;;;;;5033689;28;20542;-71
2023/08/11 07:24:42;;;;;;;4.47;3.83;;;22.40;99.90;;;;;;5033932;28;20490;-71
2023/08/11 07:27:10;;;;;;;4.03;3.63;;;22.40;99.90;;;;;;5033621;28;20785;-71
2023/08/11 07:29:39;;;;;;;6.10;3.93;;;22.50;99.90;;;;;;5034015;28;20435;-70
2023/08/11 07:32:07;;;;;;;4.27;3.50;;;22.60;99.90;;;;;;5033496;28;20484;-70
2023/08/11 07:34:36;;;;;;;5.20;3.70;;;22.70;99.90;;;;;;5033875;28;20881;-71
2023/08/11 07:37:05;;;;;;;3.80;3.50;;;22.80;99.90;;;;;;5033995;28;20430;-71
2023/08/11 07:39:35;;;;;;;3.83;3.43;;;22.80;99.90;;;;;;5033697;28;20459;-71
2023/08/11 07:42:04;;;;;;;3.63;2.90;;;23.00;99.90;;;;;;5035097;28;20943;-71
2023/08/11 07:44:34;;;;;;;3.40;3.10;;;23.00;99.90;;;;;;5037290;28;21038;-71
2023/08/11 07:47:02;;;;;;;3.30;2.43;;;23.10;99.90;;;;;;5037608;28;20446;-71
2023/08/11 07:49:31;;;;;;;2.87;2.37;;;23.20;99.90;;;;;;5037215;28;20435;-70
2023/08/11 07:51:59;;;;;;;3.40;2.40;;;23.30;99.90;;;;;;5037245;28;20439;-71
2023/08/11 07:54:27;;;;;;;3.03;2.10;;;23.40;99.90;;;;;;5037040;28;20481;-71
2023/08/11 07:56:57;;;;;;;3.50;1.93;;;23.40;99.90;;;;;;5037700;28;20529;-70
2023/08/11 07:59:25;;;;;;;3.40;1.90;;;23.50;99.90;;;;;;5037187;28;20529;-70
2023/08/11 08:01:53;;;;;;;2.17;1.60;;;23.60;99.90;;;;;;5037087;28;20474;-71
2023/08/11 08:04:22;;;;;;;2.70;2.20;;;23.60;99.90;;;;;;5036805;28;20638;-70
2023/08/11 08:06:50;;;;;;;2.83;1.90;;;23.70;99.90;;;;;;5036738;28;21037;-72
2023/08/11 08:09:18;;;;;;;1.80;1.60;;;23.70;99.90;;;;;;5036632;28;20486;-71
2023/08/11 08:11:48;;;;;;;4.10;2.20;;;23.80;99.90;;;;;;5035193;28;20455;-71
2023/08/11 08:14:18;;;;;;;6.00;1.90;;;23.80;99.90;;;;;;5035095;28;20466;-72
2023/08/11 08:16:46;;;;;;;2.23;1.63;;;23.80;99.90;;;;;;5037051;28;20446;-71
2023/08/11 08:19:16;;;;;;;1.87;1.67;;;23.90;99.90;;;;;;5036182;28;20863;-71
2023/08/11 08:21:46;;;;;;;2.60;1.90;;;23.90;99.90;;;;;;5036549;28;20879;-71
2023/08/11 08:24:15;;;;;;;2.60;1.80;;;24.00;99.90;;;;;;5036387;28;20478;-71
2023/08/11 08:26:47;;;;;;;2.30;1.73;;;24.10;99.90;;;;;;5036505;28;20525;-71
2023/08/11 08:29:15;;;;;;;1.80;1.70;;;24.10;99.90;;;;;;5036724;28;20423;-72
2023/08/11 08:31:45;;;;;;;2.20;1.83;;;24.10;99.90;;;;;;5036307;28;20510;-71
2023/08/11 08:34:13;;;;;;;2.23;1.73;;;24.10;99.90;;;;;;5036191;28;20506;-71
2023/08/11 08:36:41;;;;;;;2.63;1.60;;;24.10;99.90;;;;;;5036237;28;20847;-72
2023/08/11 08:39:10;;;;;;;2.33;2.13;;;24.20;99.90;;;;;;5034906;28;20811;-71
2023/08/11 08:41:40;;;;;;;4.37;3.80;;;24.20;99.90;;;;;;5036383;28;20768;-71
2023/08/11 08:44:08;;;;;;;4.23;2.80;;;24.30;99.90;;;;;;5036159;28;20479;-71
2023/08/11 08:46:38;;;;;;;1.77;1.60;;;24.30;99.90;;;;;;5035561;28;20861;-71
2023/08/11 08:49:15;;;;;;;2.83;1.40;;;24.40;99.90;;;;;;5036169;28;20464;-71
2023/08/11 08:51:45;;;;;;;3.40;1.90;;;24.50;99.90;;;;;;5035323;28;20430;-72
2023/08/11 08:54:13;;;;;;;2.23;1.57;;;24.50;99.90;;;;;;5034052;28;20477;-71
2023/08/11 08:56:41;;;;;;;1.93;1.50;;;24.60;99.90;;;;;;5035789;28;20484;-71
2023/08/11 08:59:09;;;;;;;2.20;1.90;;;24.60;99.90;;;;;;5035748;28;20533;-71
2023/08/11 09:01:38;;;;;;;2.40;1.97;;;24.60;99.90;;;;;;5036130;28;20435;-71
2023/08/11 09:04:07;;;;;;;4.33;2.13;;;24.60;99.90;;;;;;5036160;28;20573;-72
2023/08/11 09:06:39;;;;;;;4.00;2.10;;;24.60;99.90;;;;;;5036549;28;20537;-72
2023/08/11 09:09:09;;;;;;;3.57;1.80;;;24.70;99.90;;;;;;5036528;28;20423;-72
2023/08/11 09:11:38;;;;;;;3.17;1.90;;;24.70;99.90;;;;;;5036358;28;20522;-72
2023/08/11 09:14:08;;;;;;;1.70;1.40;;;24.70;99.90;;;;;;5036531;28;20494;-72
2023/08/11 09:16:39;;;;;;;5.17;2.37;;;24.70;99.90;;;;;;5035126;28;20447;-72
2023/08/11 09:19:13;;;;;;;2.10;1.50;;;24.70;99.90;;;;;;5036201;28;20439;-72
2023/08/11 09:21:44;;;;;;;2.67;1.67;;;24.80;99.90;;;;;;5036422;28;20415;-72
2023/08/11 09:24:13;;;;;;;2.13;1.93;;;24.80;99.90;;;;;;5035626;28;21014;-72
2023/08/11 09:26:43;;;;;;;3.10;1.80;;;24.90;99.90;;;;;;5036016;28;21062;-72
2023/08/11 09:29:12;;;;;;;3.37;2.00;;;24.90;99.90;;;;;;5035846;28;20435;-72
2023/08/11 09:31:41;;;;;;;2.60;2.10;;;25.00;99.90;;;;;;5035800;28;20434;-72
2023/08/11 09:34:14;;;;;;;2.97;1.97;;;25.00;99.90;;;;;;5034464;28;20459;-72
2023/08/11 09:36:44;;;;;;;2.67;1.70;;;25.10;99.90;;;;;;5036021;28;20430;-71
2023/08/11 09:39:13;;;;;;;3.10;1.90;;;25.10;99.90;;;;;;5035701;28;20419;-72
2023/08/11 09:41:43;;;;;;;2.50;2.00;;;25.10;99.90;;;;;;5035807;28;20462;-72
2023/08/11 09:44:12;;;;;;;3.43;2.20;;;25.20;99.90;;;;;;5034064;28;20475;-72
2023/08/11 09:46:40;;;;;;;2.27;1.90;;;25.20;99.90;;;;;;5035936;28;20431;-72
2023/08/11 09:49:09;;;;;;;3.00;2.17;;;25.20;99.90;;;;;;5035455;28;20441;-72
2023/08/11 09:51:38;;;;;;;4.47;2.03;;;25.30;99.90;;;;;;5034929;28;20496;-71
2023/08/11 09:54:09;;;;;;;2.50;2.30;;;25.30;99.90;;;;;;5035097;28;20486;-72
2023/08/11 09:56:40;;;;;;;2.30;2.10;;;25.30;99.90;;;;;;5035574;28;20834;-72
2023/08/11 09:59:11;;;;;;;3.83;2.20;;;25.30;99.90;;;;;;5036111;28;20446;-72
2023/08/11 10:01:43;;;;;;;3.30;2.23;;;25.30;99.90;;;;;;5035549;28;20415;-72
2023/08/11 10:04:16;;;;;;;3.57;2.33;;;25.30;99.90;;;;;;5034722;28;20474;-72
2023/08/11 10:06:49;;;;;;;2.37;2.17;;;25.40;99.90;;;;;;5036036;28;20423;-72
2023/08/11 10:09:22;;;;;;;3.20;2.50;;;25.40;99.90;;;;;;5034030;28;20470;-72
2023/08/11 10:11:52;;;;;;;3.00;2.20;;;25.50;99.90;;;;;;5034068;28;20458;-72
2023/08/11 10:14:22;;;;;;;2.87;2.20;;;25.50;99.90;;;;;;5035500;28;20526;-72
2023/08/11 10:16:51;;;;;;;2.40;2.20;;;25.60;99.90;;;;;;5035258;28;20419;-72
2023/08/11 10:19:20;;;;;;;2.40;2.20;;;25.60;99.90;;;;;;5034649;28;20439;-72
2023/08/11 10:21:48;;;;;;;4.03;2.40;;;25.60;99.90;;;;;;5034475;28;20790;-72
2023/08/11 10:24:20;;;;;;;3.13;2.83;;;25.60;99.90;;;;;;5033722;28;20573;-72
2023/08/11 10:26:48;;;;;;;4.17;2.83;;;25.70;99.90;;;;;;5032515;28;20450;-72
2023/08/11 10:29:17;;;;;;;2.40;2.20;;;25.80;99.90;;;;;;5034039;28;20474;-72
2023/08/11 10:31:55;;;;;;;3.20;2.57;;;25.80;99.90;;;;;;5033987;28;20839;-72
2023/08/11 10:34:24;;;;;;;2.30;2.10;;;25.80;99.90;;;;;;5033796;28;20455;-72
2023/08/11 10:36:55;;;;;;;3.40;2.33;;;25.90;99.90;;;;;;5033636;28;20439;-72
2023/08/11 10:39:25;;;;;;;2.53;2.33;;;25.90;99.90;;;;;;5033682;28;20442;-72
2023/08/11 10:41:56;;;;;;;3.87;3.20;;;25.90;99.90;;;;;;5034076;28;20415;-72
2023/08/11 10:44:28;;;;;;;3.37;2.40;;;25.90;99.90;;;;;;5033682;28;20474;-72
2023/08/11 10:46:59;;;;;;;3.00;2.70;;;25.90;99.90;;;;;;5033059;28;20446;-73
2023/08/11 10:49:35;;;;;;;3.77;2.63;;;26.00;99.90;;;;;;5033669;28;20426;-72
2023/08/11 10:52:04;;;;;;;2.93;2.50;;;26.00;99.90;;;;;;5033565;28;20473;-72
2023/08/11 10:54:34;;;;;;;3.20;2.30;;;26.10;99.90;;;;;;5033513;28;20461;-73
2023/08/11 10:57:03;;;;;;;4.57;2.57;;;26.10;99.90;;;;;;5033458;28;20428;-73
2023/08/11 10:59:34;;;;;;;4.53;2.53;;;26.10;99.90;;;;;;5033451;28;20933;-72
2023/08/11 11:02:02;;;;;;;2.60;2.40;;;26.10;99.90;;;;;;5033758;28;20429;-72
2023/08/11 11:04:32;;;;;;;2.70;2.13;;;26.20;99.90;;;;;;5033461;28;20817;-72
2023/08/11 11:07:01;;;;;;;2.80;2.60;;;26.20;99.90;;;;;;5032186;28;20512;-75
2023/08/11 11:09:30;;;;;;;2.13;1.93;;;26.20;99.90;;;;;;5033457;28;20478;-72
2023/08/11 11:11:59;;;;;;;2.83;2.40;;;26.20;99.90;;;;;;5033490;28;20451;-73
2023/08/11 11:14:28;;;;;;;3.60;2.43;;;26.30;99.90;;;;;;5033295;28;20891;-72
2023/08/11 11:16:59;;;;;;;2.90;2.00;;;26.30;99.90;;;;;;5036147;28;20421;-72
2023/08/11 11:19:28;;;;;;;2.17;1.90;;;26.30;99.90;;;;;;5037265;28;20777;-73
2023/08/11 11:21:57;;;;;;;3.90;2.20;;;26.40;99.90;;;;;;5037239;28;20431;-72
2023/08/11 11:24:25;;;;;;;2.50;2.07;;;26.40;99.90;;;;;;5035804;28;20909;-72
2023/08/11 11:26:53;;;;;;;2.30;1.90;;;26.40;99.90;;;;;;5037209;28;20480;-72
2023/08/11 11:29:23;;;;;;;2.97;2.10;;;26.50;99.90;;;;;;5037142;28;20467;-72
2023/08/11 11:31:53;;;;;;;2.53;1.63;;;26.50;99.90;;;;;;5037101;28;20912;-72
2023/08/11 11:34:22;;;;;;;3.87;2.10;;;26.50;99.90;;;;;;5036862;28;20462;-72
2023/08/11 11:36:50;;;;;;;2.10;1.70;;;26.50;99.90;;;;;;5037325;28;20458;-73
2023/08/11 11:39:18;;;;;;;3.40;2.23;;;26.60;99.90;;;;;;5037221;28;20478;-73
2023/08/11 11:41:47;;;;;;;1.87;1.63;;;26.60;99.90;;;;;;5036888;28;20435;-72
2023/08/11 11:44:15;;;;;;;2.47;1.87;;;26.70;99.90;;;;;;5036616;28;20844;-72
2023/08/11 11:46:45;;;;;;;2.57;1.57;;;26.70;99.90;;;;;;5036559;28;20439;-72
2023/08/11 11:49:15;;;;;;;2.10;1.73;;;26.70;99.90;;;;;;5036910;28;20442;-71
2023/08/11 11:51:57;;;;;;;2.00;1.50;;;26.80;99.90;;;;;;5037031;28;20415;-72
2023/08/11 11:54:28;;;;;;;2.30;1.60;;;26.80;99.90;;;;;;5036529;28;20459;-73
2023/08/11 11:56:57;;;;;;;2.60;1.87;;;26.80;99.90;;;;;;5036517;28;20897;-72
2023/08/11 11:59:33;;;;;;;2.50;1.63;;;26.90;99.90;;;;;;5035332;28;20477;-73
2023/08/11 12:02:03;;;;;;;3.17;1.80;;;26.90;99.90;;;;;;5036735;28;20948;-73
2023/08/11 12:04:32;;;;;;;1.60;1.40;;;26.90;99.90;;;;;;5035321;28;21022;-73
2023/08/11 12:07:01;;;;;;;2.40;1.60;;;27.00;99.90;;;;;;5035196;28;20803;-72
2023/08/11 12:09:29;;;;;;;2.10;1.63;;;27.00;99.90;;;;;;5036359;28;20454;-73
2023/08/11 12:11:58;;;;;;;3.17;2.30;;;27.10;99.90;;;;;;5036155;28;20821;-72
2023/08/11 12:14:29;;;;;;;2.00;1.70;;;27.00;99.90;;;;;;5036036;28;20459;-72
2023/08/11 12:16:58;;;;;;;2.10;1.30;;;27.10;99.90;;;;;;5036139;28;20548;-72
2023/08/11 12:19:29;;;;;;;2.20;1.43;;;27.10;99.90;;;;;;5036632;28;20442;-72
2023/08/11 12:21:57;;;;;;;2.50;1.60;;;27.10;99.90;;;;;;5036551;28;20423;-72
2023/08/11 12:24:26;;;;;;;2.33;1.67;;;27.20;99.90;;;;;;5034669;28;20470;-72
2023/08/11 12:26:54;;;;;;;2.20;1.87;;;27.20;99.90;;;;;;5035723;28;20470;-72
2023/08/11 12:29:22;;;;;;;2.40;1.30;;;27.20;99.90;;;;;;5034355;28;20485;-72
2023/08/11 12:31:51;;;;;;;1.93;1.40;;;27.30;99.90;;;;;;5035848;28;20431;-72
2023/08/11 12:34:19;;;;;;;2.07;1.50;;;27.40;99.90;;;;;;5035894;28;21070;-72
2023/08/11 12:36:48;;;;;;;4.93;1.83;;;27.40;99.90;;;;;;5036050;28;20526;-72
2023/08/11 12:39:16;;;;;;;2.63;1.70;;;27.50;99.90;;;;;;5035612;28;20439;-72
2023/08/11 12:41:45;;;;;;;4.03;2.07;;;27.50;99.90;;;;;;5035772;28;20513;-72
2023/08/11 12:44:13;;;;;;;3.30;1.70;;;27.50;99.90;;;;;;5035530;28;20483;-72
2023/08/11 12:46:42;;;;;;;2.57;2.37;;;27.50;99.90;;;;;;5035963;28;20884;-73
2023/08/11 12:49:10;;;;;;;1.80;1.60;;;27.60;99.90;;;;;;5035467;28;20466;-73